sensor_id;sensor_type;location;lat;lon;timestamp;P1;durP1;ratioP1;P2;durP2;ratioP2
45236;SDS011;30973;51.442;3.580;2023-06-22T00:01:12;7.05;;;4.63;;
45236;SDS011;30973;51.442;3.580;2023-06-22T00:03:39;7.53;;;4.82;;
45236;SDS011;30973;51.442;3.580;2023-06-22T00:06:06;7.50;;;4.75;;
45236;SDS011;30973;51.442;3.580;2023-06-22T00:08:32;6.95;;;5.20;;
45236;SDS011;30973;51.442;3.580;2023-06-22T00:10:59;6.95;;;4.95;;
45236;SDS011;30973;51.442;3.580;2023-06-22T00:13:26;6.38;;;4.32;;
45236;SDS011;30973;51.442;3.580;2023-06-22T00:15:52;6.50;;;4.85;;
45236;SDS011;30973;51.442;3.580;2023-06-22T00:18:19;5.78;;;4.88;;
45236;SDS011;30973;51.442;3.580;2023-06-22T00:20:46;6.70;;;5.30;;
45236;SDS011;30973;51.442;3.580;2023-06-22T00:23:13;7.22;;;5.40;;
45236;SDS011;30973;51.442;3.580;2023-06-22T00:25:42;5.78;;;4.78;;
45236;SDS011;30973;51.442;3.580;2023-06-22T00:28:08;7.20;;;4.88;;
45236;SDS011;30973;51.442;3.580;2023-06-22T00:30:35;6.53;;;5.07;;
45236;SDS011;30973;51.442;3.580;2023-06-22T00:33:02;6.35;;;4.70;;
45236;SDS011;30973;51.442;3.580;2023-06-22T00:35:29;6.13;;;5.53;;
45236;SDS011;30973;51.442;3.580;2023-06-22T00:37:56;6.15;;;4.85;;
45236;SDS011;30973;51.442;3.580;2023-06-22T00:40:30;7.70;;;5.88;;
45236;SDS011;30973;51.442;3.580;2023-06-22T00:42:57;7.78;;;5.32;;
45236;SDS011;30973;51.442;3.580;2023-06-22T00:45:24;7.95;;;5.60;;
45236;SDS011;30973;51.442;3.580;2023-06-22T00:47:51;7.07;;;5.43;;
45236;SDS011;30973;51.442;3.580;2023-06-22T00:50:19;6.25;;;5.07;;
45236;SDS011;30973;51.442;3.580;2023-06-22T00:52:54;8.40;;;5.68;;
45236;SDS011;30973;51.442;3.580;2023-06-22T00:55:22;6.00;;;5.00;;
45236;SDS011;30973;51.442;3.580;2023-06-22T00:57:49;7.03;;;5.90;;
45236;SDS011;30973;51.442;3.580;2023-06-22T01:00:16;6.95;;;5.25;;
45236;SDS011;30973;51.442;3.580;2023-06-22T01:02:46;7.50;;;5.60;;
45236;SDS011;30973;51.442;3.580;2023-06-22T01:05:13;6.97;;;5.22;;
45236;SDS011;30973;51.442;3.580;2023-06-22T01:07:51;6.47;;;5.38;;
45236;SDS011;30973;51.442;3.580;2023-06-22T01:10:27;8.63;;;5.97;;
45236;SDS011;30973;51.442;3.580;2023-06-22T01:13:01;8.73;;;5.75;;
45236;SDS011;30973;51.442;3.580;2023-06-22T01:17:56;7.00;;;5.60;;
45236;SDS011;30973;51.442;3.580;2023-06-22T01:20:23;6.07;;;5.22;;
45236;SDS011;30973;51.442;3.580;2023-06-22T01:22:55;8.18;;;5.75;;
45236;SDS011;30973;51.442;3.580;2023-06-22T01:25:26;7.18;;;5.28;;
45236;SDS011;30973;51.442;3.580;2023-06-22T01:30:31;7.82;;;5.82;;
45236;SDS011;30973;51.442;3.580;2023-06-22T01:33:02;6.45;;;5.53;;
45236;SDS011;30973;51.442;3.580;2023-06-22T01:35:30;7.68;;;6.20;;
45236;SDS011;30973;51.442;3.580;2023-06-22T01:37:59;6.88;;;5.55;;
45236;SDS011;30973;51.442;3.580;2023-06-22T01:40:26;8.48;;;6.00;;
45236;SDS011;30973;51.442;3.580;2023-06-22T01:42:54;7.93;;;6.13;;
45236;SDS011;30973;51.442;3.580;2023-06-22T01:45:21;10.73;;;6.28;;
45236;SDS011;30973;51.442;3.580;2023-06-22T01:47:48;7.35;;;6.20;;
45236;SDS011;30973;51.442;3.580;2023-06-22T01:50:15;9.48;;;6.47;;
45236;SDS011;30973;51.442;3.580;2023-06-22T01:52:42;9.23;;;6.82;;
45236;SDS011;30973;51.442;3.580;2023-06-22T01:55:08;8.93;;;6.90;;
45236;SDS011;30973;51.442;3.580;2023-06-22T01:57:35;9.30;;;6.68;;
45236;SDS011;30973;51.442;3.580;2023-06-22T02:00:03;9.63;;;7.03;;
45236;SDS011;30973;51.442;3.580;2023-06-22T02:05:18;10.10;;;7.57;;
45236;SDS011;30973;51.442;3.580;2023-06-22T02:07:46;9.40;;;7.30;;
45236;SDS011;30973;51.442;3.580;2023-06-22T02:10:16;10.25;;;8.00;;
45236;SDS011;30973;51.442;3.580;2023-06-22T02:12:44;9.77;;;7.80;;
45236;SDS011;30973;51.442;3.580;2023-06-22T02:15:12;10.10;;;8.10;;
45236;SDS011;30973;51.442;3.580;2023-06-22T02:17:42;9.50;;;8.10;;
45236;SDS011;30973;51.442;3.580;2023-06-22T02:20:12;10.05;;;7.72;;
45236;SDS011;30973;51.442;3.580;2023-06-22T02:22:40;10.88;;;7.80;;
45236;SDS011;30973;51.442;3.580;2023-06-22T02:25:09;12.10;;;8.23;;
45236;SDS011;30973;51.442;3.580;2023-06-22T02:27:36;10.40;;;8.73;;
45236;SDS011;30973;51.442;3.580;2023-06-22T02:30:12;10.93;;;8.38;;
45236;SDS011;30973;51.442;3.580;2023-06-22T02:32:38;10.43;;;8.80;;
45236;SDS011;30973;51.442;3.580;2023-06-22T02:35:08;11.05;;;8.57;;
45236;SDS011;30973;51.442;3.580;2023-06-22T02:37:36;11.18;;;8.65;;
45236;SDS011;30973;51.442;3.580;2023-06-22T02:40:08;12.70;;;9.77;;
45236;SDS011;30973;51.442;3.580;2023-06-22T02:42:37;11.88;;;9.40;;
45236;SDS011;30973;51.442;3.580;2023-06-22T02:45:04;14.98;;;10.80;;
45236;SDS011;30973;51.442;3.580;2023-06-22T02:47:31;12.15;;;9.20;;
45236;SDS011;30973;51.442;3.580;2023-06-22T02:49:58;11.77;;;9.35;;
45236;SDS011;30973;51.442;3.580;2023-06-22T02:52:24;13.40;;;9.18;;
45236;SDS011;30973;51.442;3.580;2023-06-22T02:54:51;11.73;;;9.32;;
45236;SDS011;30973;51.442;3.580;2023-06-22T02:57:18;11.57;;;9.18;;
45236;SDS011;30973;51.442;3.580;2023-06-22T02:59:45;10.68;;;9.15;;
45236;SDS011;30973;51.442;3.580;2023-06-22T03:02:12;12.27;;;9.85;;
45236;SDS011;30973;51.442;3.580;2023-06-22T03:04:40;12.20;;;9.77;;
45236;SDS011;30973;51.442;3.580;2023-06-22T03:07:06;12.20;;;9.52;;
45236;SDS011;30973;51.442;3.580;2023-06-22T03:09:33;12.27;;;9.85;;
45236;SDS011;30973;51.442;3.580;2023-06-22T03:12:00;13.32;;;10.15;;
45236;SDS011;30973;51.442;3.580;2023-06-22T03:14:42;12.75;;;9.80;;
45236;SDS011;30973;51.442;3.580;2023-06-22T03:17:09;12.82;;;10.40;;
45236;SDS011;30973;51.442;3.580;2023-06-22T03:19:37;13.10;;;10.30;;
45236;SDS011;30973;51.442;3.580;2023-06-22T03:22:04;12.80;;;10.90;;
45236;SDS011;30973;51.442;3.580;2023-06-22T03:24:30;11.88;;;9.45;;
45236;SDS011;30973;51.442;3.580;2023-06-22T03:26:57;14.10;;;10.85;;
45236;SDS011;30973;51.442;3.580;2023-06-22T03:29:24;12.50;;;10.15;;
45236;SDS011;30973;51.442;3.580;2023-06-22T03:31:55;14.18;;;10.23;;
45236;SDS011;30973;51.442;3.580;2023-06-22T03:34:21;15.07;;;11.98;;
45236;SDS011;30973;51.442;3.580;2023-06-22T03:36:51;14.43;;;11.00;;
45236;SDS011;30973;51.442;3.580;2023-06-22T03:39:18;14.20;;;11.93;;
45236;SDS011;30973;51.442;3.580;2023-06-22T03:41:44;16.23;;;12.77;;
45236;SDS011;30973;51.442;3.580;2023-06-22T03:44:11;14.90;;;12.23;;
45236;SDS011;30973;51.442;3.580;2023-06-22T03:46:38;15.75;;;13.50;;
45236;SDS011;30973;51.442;3.580;2023-06-22T03:49:05;17.35;;;13.45;;
45236;SDS011;30973;51.442;3.580;2023-06-22T03:51:32;16.23;;;13.57;;
45236;SDS011;30973;51.442;3.580;2023-06-22T03:53:59;18.65;;;13.93;;
45236;SDS011;30973;51.442;3.580;2023-06-22T03:56:25;18.85;;;14.52;;
45236;SDS011;30973;51.442;3.580;2023-06-22T03:58:52;19.08;;;14.68;;
45236;SDS011;30973;51.442;3.580;2023-06-22T04:01:19;20.55;;;15.65;;
45236;SDS011;30973;51.442;3.580;2023-06-22T04:03:46;18.35;;;14.93;;
45236;SDS011;30973;51.442;3.580;2023-06-22T04:06:15;20.13;;;14.82;;
45236;SDS011;30973;51.442;3.580;2023-06-22T04:08:41;18.70;;;14.68;;
45236;SDS011;30973;51.442;3.580;2023-06-22T04:11:08;20.58;;;15.98;;
45236;SDS011;30973;51.442;3.580;2023-06-22T04:13:35;19.63;;;16.45;;
45236;SDS011;30973;51.442;3.580;2023-06-22T04:16:01;20.10;;;15.75;;
45236;SDS011;30973;51.442;3.580;2023-06-22T04:18:28;21.75;;;16.00;;
45236;SDS011;30973;51.442;3.580;2023-06-22T04:20:55;24.77;;;17.02;;
45236;SDS011;30973;51.442;3.580;2023-06-22T04:23:21;22.17;;;16.05;;
45236;SDS011;30973;51.442;3.580;2023-06-22T04:25:48;20.73;;;16.40;;
45236;SDS011;30973;51.442;3.580;2023-06-22T04:28:14;21.58;;;16.88;;
45236;SDS011;30973;51.442;3.580;2023-06-22T04:30:41;23.33;;;16.70;;
45236;SDS011;30973;51.442;3.580;2023-06-22T04:33:16;25.50;;;17.30;;
45236;SDS011;30973;51.442;3.580;2023-06-22T04:35:45;19.92;;;16.25;;
45236;SDS011;30973;51.442;3.580;2023-06-22T04:38:14;22.02;;;16.73;;
45236;SDS011;30973;51.442;3.580;2023-06-22T04:40:41;23.98;;;17.10;;
45236;SDS011;30973;51.442;3.580;2023-06-22T04:43:07;22.60;;;16.70;;
45236;SDS011;30973;51.442;3.580;2023-06-22T04:45:36;23.45;;;17.80;;
45236;SDS011;30973;51.442;3.580;2023-06-22T04:48:06;20.67;;;16.80;;
45236;SDS011;30973;51.442;3.580;2023-06-22T04:50:32;22.55;;;17.67;;
45236;SDS011;30973;51.442;3.580;2023-06-22T04:52:59;21.90;;;16.13;;
45236;SDS011;30973;51.442;3.580;2023-06-22T04:55:26;20.67;;;16.38;;
45236;SDS011;30973;51.442;3.580;2023-06-22T04:57:52;23.40;;;16.70;;
45236;SDS011;30973;51.442;3.580;2023-06-22T05:00:19;21.80;;;17.23;;
45236;SDS011;30973;51.442;3.580;2023-06-22T05:02:46;22.42;;;17.95;;
45236;SDS011;30973;51.442;3.580;2023-06-22T05:05:13;22.00;;;17.08;;
45236;SDS011;30973;51.442;3.580;2023-06-22T05:07:43;19.85;;;15.65;;
45236;SDS011;30973;51.442;3.580;2023-06-22T05:10:10;22.10;;;16.95;;
45236;SDS011;30973;51.442;3.580;2023-06-22T05:12:39;20.58;;;16.02;;
45236;SDS011;30973;51.442;3.580;2023-06-22T05:15:06;20.98;;;15.65;;
45236;SDS011;30973;51.442;3.580;2023-06-22T05:17:33;18.33;;;14.73;;
45236;SDS011;30973;51.442;3.580;2023-06-22T05:20:01;18.80;;;14.60;;
45236;SDS011;30973;51.442;3.580;2023-06-22T05:22:27;20.15;;;14.18;;
45236;SDS011;30973;51.442;3.580;2023-06-22T05:24:54;19.20;;;14.75;;
45236;SDS011;30973;51.442;3.580;2023-06-22T05:27:22;19.88;;;14.30;;
45236;SDS011;30973;51.442;3.580;2023-06-22T05:29:49;19.67;;;14.23;;
45236;SDS011;30973;51.442;3.580;2023-06-22T05:32:15;16.98;;;13.30;;
45236;SDS011;30973;51.442;3.580;2023-06-22T05:34:42;19.25;;;15.32;;
45236;SDS011;30973;51.442;3.580;2023-06-22T05:37:09;19.38;;;14.35;;
45236;SDS011;30973;51.442;3.580;2023-06-22T05:39:36;17.23;;;13.00;;
45236;SDS011;30973;51.442;3.580;2023-06-22T05:42:06;16.48;;;12.77;;
45236;SDS011;30973;51.442;3.580;2023-06-22T05:44:36;15.20;;;12.20;;
45236;SDS011;30973;51.442;3.580;2023-06-22T05:47:04;21.67;;;13.70;;
45236;SDS011;30973;51.442;3.580;2023-06-22T05:49:31;17.67;;;14.07;;
45236;SDS011;30973;51.442;3.580;2023-06-22T05:51:59;16.95;;;13.27;;
45236;SDS011;30973;51.442;3.580;2023-06-22T05:54:29;16.70;;;12.80;;
45236;SDS011;30973;51.442;3.580;2023-06-22T05:56:56;16.63;;;12.20;;
45236;SDS011;30973;51.442;3.580;2023-06-22T05:59:23;16.48;;;12.90;;
45236;SDS011;30973;51.442;3.580;2023-06-22T06:01:49;16.38;;;12.52;;
45236;SDS011;30973;51.442;3.580;2023-06-22T06:04:17;17.67;;;12.70;;
45236;SDS011;30973;51.442;3.580;2023-06-22T06:06:44;15.95;;;12.98;;
45236;SDS011;30973;51.442;3.580;2023-06-22T06:09:10;15.10;;;11.63;;
45236;SDS011;30973;51.442;3.580;2023-06-22T06:11:38;15.43;;;12.15;;
45236;SDS011;30973;51.442;3.580;2023-06-22T06:14:04;13.65;;;12.00;;
45236;SDS011;30973;51.442;3.580;2023-06-22T06:16:31;14.05;;;11.50;;
45236;SDS011;30973;51.442;3.580;2023-06-22T06:19:11;14.38;;;11.43;;
45236;SDS011;30973;51.442;3.580;2023-06-22T06:21:38;18.23;;;12.75;;
45236;SDS011;30973;51.442;3.580;2023-06-22T06:24:05;14.55;;;11.77;;
45236;SDS011;30973;51.442;3.580;2023-06-22T06:26:32;16.92;;;12.50;;
45236;SDS011;30973;51.442;3.580;2023-06-22T06:29:00;15.02;;;12.18;;
45236;SDS011;30973;51.442;3.580;2023-06-22T06:31:26;13.45;;;11.93;;
45236;SDS011;30973;51.442;3.580;2023-06-22T06:33:55;17.50;;;12.13;;
45236;SDS011;30973;51.442;3.580;2023-06-22T06:36:21;16.05;;;11.68;;
45236;SDS011;30973;51.442;3.580;2023-06-22T06:38:48;15.02;;;12.38;;
45236;SDS011;30973;51.442;3.580;2023-06-22T06:41:15;13.43;;;11.25;;
45236;SDS011;30973;51.442;3.580;2023-06-22T06:43:42;14.73;;;12.25;;
45236;SDS011;30973;51.442;3.580;2023-06-22T06:46:11;15.80;;;11.57;;
45236;SDS011;30973;51.442;3.580;2023-06-22T06:48:38;15.25;;;11.43;;
45236;SDS011;30973;51.442;3.580;2023-06-22T06:51:05;15.25;;;12.05;;
45236;SDS011;30973;51.442;3.580;2023-06-22T06:53:31;13.98;;;11.48;;
45236;SDS011;30973;51.442;3.580;2023-06-22T06:55:58;14.32;;;11.27;;
45236;SDS011;30973;51.442;3.580;2023-06-22T06:58:25;14.63;;;11.02;;
45236;SDS011;30973;51.442;3.580;2023-06-22T07:00:51;14.93;;;10.82;;
45236;SDS011;30973;51.442;3.580;2023-06-22T07:03:18;13.05;;;9.90;;
45236;SDS011;30973;51.442;3.580;2023-06-22T07:05:45;14.80;;;11.05;;
45236;SDS011;30973;51.442;3.580;2023-06-22T07:08:11;13.80;;;10.25;;
45236;SDS011;30973;51.442;3.580;2023-06-22T07:10:38;15.65;;;10.40;;
45236;SDS011;30973;51.442;3.580;2023-06-22T07:13:04;14.27;;;9.80;;
45236;SDS011;30973;51.442;3.580;2023-06-22T07:15:31;15.13;;;9.82;;
45236;SDS011;30973;51.442;3.580;2023-06-22T07:17:57;14.88;;;10.75;;
45236;SDS011;30973;51.442;3.580;2023-06-22T07:20:24;13.68;;;11.48;;
45236;SDS011;30973;51.442;3.580;2023-06-22T07:22:51;17.77;;;10.85;;
45236;SDS011;30973;51.442;3.580;2023-06-22T07:25:17;12.50;;;11.00;;
45236;SDS011;30973;51.442;3.580;2023-06-22T07:28:06;12.98;;;10.48;;
45236;SDS011;30973;51.442;3.580;2023-06-22T07:30:32;14.73;;;10.55;;
45236;SDS011;30973;51.442;3.580;2023-06-22T07:33:00;13.98;;;10.95;;
45236;SDS011;30973;51.442;3.580;2023-06-22T07:35:31;12.63;;;10.23;;
45236;SDS011;30973;51.442;3.580;2023-06-22T07:37:58;12.55;;;11.18;;
45236;SDS011;30973;51.442;3.580;2023-06-22T07:40:26;13.60;;;10.73;;
45236;SDS011;30973;51.442;3.580;2023-06-22T07:42:53;13.55;;;10.07;;
45236;SDS011;30973;51.442;3.580;2023-06-22T07:45:20;12.30;;;10.50;;
45236;SDS011;30973;51.442;3.580;2023-06-22T07:47:46;10.73;;;9.57;;
45236;SDS011;30973;51.442;3.580;2023-06-22T07:50:13;14.38;;;10.43;;
45236;SDS011;30973;51.442;3.580;2023-06-22T07:52:40;12.98;;;10.57;;
45236;SDS011;30973;51.442;3.580;2023-06-22T07:55:07;14.13;;;10.00;;
45236;SDS011;30973;51.442;3.580;2023-06-22T07:57:33;13.50;;;10.60;;
45236;SDS011;30973;51.442;3.580;2023-06-22T08:00:02;13.07;;;10.10;;
45236;SDS011;30973;51.442;3.580;2023-06-22T08:02:37;13.18;;;10.23;;
45236;SDS011;30973;51.442;3.580;2023-06-22T08:05:04;12.13;;;9.57;;
45236;SDS011;30973;51.442;3.580;2023-06-22T08:07:53;11.63;;;9.43;;
45236;SDS011;30973;51.442;3.580;2023-06-22T08:10:21;13.50;;;10.20;;
45236;SDS011;30973;51.442;3.580;2023-06-22T08:12:48;11.68;;;9.95;;
45236;SDS011;30973;51.442;3.580;2023-06-22T08:15:14;14.27;;;9.85;;
45236;SDS011;30973;51.442;3.580;2023-06-22T08:17:41;11.32;;;9.45;;
45236;SDS011;30973;51.442;3.580;2023-06-22T08:20:08;11.35;;;8.90;;
45236;SDS011;30973;51.442;3.580;2023-06-22T08:22:41;10.55;;;9.00;;
45236;SDS011;30973;51.442;3.580;2023-06-22T08:25:08;13.35;;;9.43;;
45236;SDS011;30973;51.442;3.580;2023-06-22T08:27:35;11.38;;;8.95;;
45236;SDS011;30973;51.442;3.580;2023-06-22T08:30:02;10.60;;;9.38;;
45236;SDS011;30973;51.442;3.580;2023-06-22T08:32:29;10.77;;;9.48;;
45236;SDS011;30973;51.442;3.580;2023-06-22T08:34:56;12.35;;;9.50;;
45236;SDS011;30973;51.442;3.580;2023-06-22T08:37:23;11.85;;;9.73;;
45236;SDS011;30973;51.442;3.580;2023-06-22T08:39:58;10.65;;;8.63;;
45236;SDS011;30973;51.442;3.580;2023-06-22T08:42:25;11.57;;;8.02;;
45236;SDS011;30973;51.442;3.580;2023-06-22T08:44:52;11.57;;;9.13;;
45236;SDS011;30973;51.442;3.580;2023-06-22T08:47:20;13.35;;;8.98;;
45236;SDS011;30973;51.442;3.580;2023-06-22T08:49:47;11.45;;;9.10;;
45236;SDS011;30973;51.442;3.580;2023-06-22T08:52:13;11.00;;;9.18;;
45236;SDS011;30973;51.442;3.580;2023-06-22T08:54:40;12.25;;;9.93;;
45236;SDS011;30973;51.442;3.580;2023-06-22T08:57:07;12.98;;;10.00;;
45236;SDS011;30973;51.442;3.580;2023-06-22T08:59:33;11.15;;;9.95;;
45236;SDS011;30973;51.442;3.580;2023-06-22T09:02:00;12.48;;;9.73;;
45236;SDS011;30973;51.442;3.580;2023-06-22T09:04:26;11.15;;;9.82;;
45236;SDS011;30973;51.442;3.580;2023-06-22T09:06:53;14.82;;;9.55;;
45236;SDS011;30973;51.442;3.580;2023-06-22T09:09:20;11.80;;;9.27;;
45236;SDS011;30973;51.442;3.580;2023-06-22T09:11:47;10.52;;;8.50;;
45236;SDS011;30973;51.442;3.580;2023-06-22T09:14:14;12.63;;;9.90;;
45236;SDS011;30973;51.442;3.580;2023-06-22T09:16:40;12.25;;;7.88;;
45236;SDS011;30973;51.442;3.580;2023-06-22T09:19:07;11.60;;;8.98;;
45236;SDS011;30973;51.442;3.580;2023-06-22T09:21:33;11.10;;;9.52;;
45236;SDS011;30973;51.442;3.580;2023-06-22T09:24:00;10.35;;;8.30;;
45236;SDS011;30973;51.442;3.580;2023-06-22T09:26:27;11.98;;;8.15;;
45236;SDS011;30973;51.442;3.580;2023-06-22T09:28:54;10.63;;;8.35;;
45236;SDS011;30973;51.442;3.580;2023-06-22T09:31:20;10.35;;;8.25;;
45236;SDS011;30973;51.442;3.580;2023-06-22T09:33:52;8.82;;;7.75;;
45236;SDS011;30973;51.442;3.580;2023-06-22T09:36:20;9.88;;;8.27;;
45236;SDS011;30973;51.442;3.580;2023-06-22T09:38:47;11.15;;;7.53;;
45236;SDS011;30973;51.442;3.580;2023-06-22T09:41:14;8.05;;;6.57;;
45236;SDS011;30973;51.442;3.580;2023-06-22T09:43:40;10.77;;;7.15;;
45236;SDS011;30973;51.442;3.580;2023-06-22T09:46:07;10.80;;;7.95;;
45236;SDS011;30973;51.442;3.580;2023-06-22T09:48:35;9.77;;;7.65;;
45236;SDS011;30973;51.442;3.580;2023-06-22T09:51:06;13.13;;;7.30;;
45236;SDS011;30973;51.442;3.580;2023-06-22T09:53:32;8.50;;;7.18;;
45236;SDS011;30973;51.442;3.580;2023-06-22T09:56:01;9.38;;;6.78;;
45236;SDS011;30973;51.442;3.580;2023-06-22T09:58:28;8.43;;;7.25;;
45236;SDS011;30973;51.442;3.580;2023-06-22T10:00:54;11.80;;;8.13;;
45236;SDS011;30973;51.442;3.580;2023-06-22T10:03:21;11.07;;;7.68;;
45236;SDS011;30973;51.442;3.580;2023-06-22T10:05:49;9.73;;;7.00;;
45236;SDS011;30973;51.442;3.580;2023-06-22T10:08:16;11.05;;;6.80;;
45236;SDS011;30973;51.442;3.580;2023-06-22T10:10:42;10.85;;;6.70;;
45236;SDS011;30973;51.442;3.580;2023-06-22T10:13:09;8.25;;;6.78;;
45236;SDS011;30973;51.442;3.580;2023-06-22T10:15:39;12.00;;;8.00;;
45236;SDS011;30973;51.442;3.580;2023-06-22T10:18:05;10.70;;;8.10;;
45236;SDS011;30973;51.442;3.580;2023-06-22T10:20:32;10.20;;;7.47;;
45236;SDS011;30973;51.442;3.580;2023-06-22T10:22:59;8.27;;;7.03;;
45236;SDS011;30973;51.442;3.580;2023-06-22T10:25:26;9.18;;;6.78;;
45236;SDS011;30973;51.442;3.580;2023-06-22T10:27:53;9.38;;;7.30;;
45236;SDS011;30973;51.442;3.580;2023-06-22T10:30:19;10.48;;;8.30;;
45236;SDS011;30973;51.442;3.580;2023-06-22T10:32:46;10.70;;;8.07;;
45236;SDS011;30973;51.442;3.580;2023-06-22T10:35:13;11.70;;;7.72;;
45236;SDS011;30973;51.442;3.580;2023-06-22T10:37:46;13.20;;;8.80;;
45236;SDS011;30973;51.442;3.580;2023-06-22T10:40:13;11.13;;;9.32;;
45236;SDS011;30973;51.442;3.580;2023-06-22T10:42:40;15.00;;;10.35;;
45236;SDS011;30973;51.442;3.580;2023-06-22T10:45:07;14.38;;;10.68;;
45236;SDS011;30973;51.442;3.580;2023-06-22T10:47:34;14.43;;;9.73;;
45236;SDS011;30973;51.442;3.580;2023-06-22T10:50:01;12.35;;;9.48;;
45236;SDS011;30973;51.442;3.580;2023-06-22T10:52:28;13.30;;;10.73;;
45236;SDS011;30973;51.442;3.580;2023-06-22T10:54:55;17.58;;;11.60;;
45236;SDS011;30973;51.442;3.580;2023-06-22T10:57:22;14.95;;;11.80;;
45236;SDS011;30973;51.442;3.580;2023-06-22T10:59:49;14.98;;;10.57;;
45236;SDS011;30973;51.442;3.580;2023-06-22T11:02:16;14.93;;;11.73;;
45236;SDS011;30973;51.442;3.580;2023-06-22T11:04:42;13.45;;;10.73;;
45236;SDS011;30973;51.442;3.580;2023-06-22T11:07:09;13.55;;;9.95;;
45236;SDS011;30973;51.442;3.580;2023-06-22T11:09:36;13.48;;;10.60;;
45236;SDS011;30973;51.442;3.580;2023-06-22T11:12:05;14.38;;;11.00;;
45236;SDS011;30973;51.442;3.580;2023-06-22T11:14:32;13.70;;;10.20;;
45236;SDS011;30973;51.442;3.580;2023-06-22T11:17:00;15.60;;;11.07;;
45236;SDS011;30973;51.442;3.580;2023-06-22T11:19:26;15.07;;;11.60;;
45236;SDS011;30973;51.442;3.580;2023-06-22T11:21:53;15.30;;;10.90;;
45236;SDS011;30973;51.442;3.580;2023-06-22T11:24:20;17.30;;;12.38;;
45236;SDS011;30973;51.442;3.580;2023-06-22T11:26:46;14.65;;;11.00;;
45236;SDS011;30973;51.442;3.580;2023-06-22T11:29:13;17.17;;;12.25;;
45236;SDS011;30973;51.442;3.580;2023-06-22T11:31:58;16.25;;;12.20;;
45236;SDS011;30973;51.442;3.580;2023-06-22T11:34:25;18.67;;;12.68;;
45236;SDS011;30973;51.442;3.580;2023-06-22T11:36:52;16.30;;;12.70;;
45236;SDS011;30973;51.442;3.580;2023-06-22T11:39:18;17.33;;;13.55;;
45236;SDS011;30973;51.442;3.580;2023-06-22T11:41:59;17.90;;;13.35;;
45236;SDS011;30973;51.442;3.580;2023-06-22T11:44:26;18.40;;;13.45;;
45236;SDS011;30973;51.442;3.580;2023-06-22T11:46:53;20.85;;;14.70;;
45236;SDS011;30973;51.442;3.580;2023-06-22T11:49:19;18.27;;;14.68;;
45236;SDS011;30973;51.442;3.580;2023-06-22T11:51:46;20.45;;;15.68;;
45236;SDS011;30973;51.442;3.580;2023-06-22T11:54:12;19.65;;;14.43;;
45236;SDS011;30973;51.442;3.580;2023-06-22T11:56:39;18.55;;;15.00;;
45236;SDS011;30973;51.442;3.580;2023-06-22T11:59:05;20.38;;;15.75;;
45236;SDS011;30973;51.442;3.580;2023-06-22T12:01:32;22.90;;;16.85;;
45236;SDS011;30973;51.442;3.580;2023-06-22T12:03:59;19.95;;;16.40;;
45236;SDS011;30973;51.442;3.580;2023-06-22T12:06:26;22.08;;;16.77;;
45236;SDS011;30973;51.442;3.580;2023-06-22T12:08:52;22.20;;;17.40;;
45236;SDS011;30973;51.442;3.580;2023-06-22T12:11:19;22.75;;;17.48;;
45236;SDS011;30973;51.442;3.580;2023-06-22T12:13:46;21.75;;;16.90;;
45236;SDS011;30973;51.442;3.580;2023-06-22T12:16:12;20.83;;;16.15;;
45236;SDS011;30973;51.442;3.580;2023-06-22T12:18:39;23.10;;;17.05;;
45236;SDS011;30973;51.442;3.580;2023-06-22T12:21:05;23.08;;;18.13;;
45236;SDS011;30973;51.442;3.580;2023-06-22T12:23:32;22.63;;;18.15;;
45236;SDS011;30973;51.442;3.580;2023-06-22T12:25:59;25.08;;;19.38;;
45236;SDS011;30973;51.442;3.580;2023-06-22T12:28:26;24.42;;;19.35;;
45236;SDS011;30973;51.442;3.580;2023-06-22T12:30:53;25.52;;;19.10;;
45236;SDS011;30973;51.442;3.580;2023-06-22T12:33:19;28.48;;;22.13;;
45236;SDS011;30973;51.442;3.580;2023-06-22T12:35:46;28.50;;;21.67;;
45236;SDS011;30973;51.442;3.580;2023-06-22T12:38:15;29.20;;;22.58;;
45236;SDS011;30973;51.442;3.580;2023-06-22T12:40:42;27.33;;;21.77;;
45236;SDS011;30973;51.442;3.580;2023-06-22T12:43:08;26.20;;;22.33;;
45236;SDS011;30973;51.442;3.580;2023-06-22T12:45:35;31.55;;;24.58;;
45236;SDS011;30973;51.442;3.580;2023-06-22T12:48:01;31.50;;;26.70;;
45236;SDS011;30973;51.442;3.580;2023-06-22T12:50:28;30.88;;;25.35;;
45236;SDS011;30973;51.442;3.580;2023-06-22T12:52:55;32.78;;;26.45;;
45236;SDS011;30973;51.442;3.580;2023-06-22T12:55:22;36.33;;;26.90;;
45236;SDS011;30973;51.442;3.580;2023-06-22T12:57:48;38.28;;;28.85;;
45236;SDS011;30973;51.442;3.580;2023-06-22T13:00:15;37.67;;;30.50;;
45236;SDS011;30973;51.442;3.580;2023-06-22T13:02:42;37.72;;;29.55;;
45236;SDS011;30973;51.442;3.580;2023-06-22T13:05:09;37.80;;;31.95;;
45236;SDS011;30973;51.442;3.580;2023-06-22T13:07:36;39.67;;;31.30;;
45236;SDS011;30973;51.442;3.580;2023-06-22T13:10:02;37.80;;;30.05;;
45236;SDS011;30973;51.442;3.580;2023-06-22T13:12:29;34.92;;;29.83;;
45236;SDS011;30973;51.442;3.580;2023-06-22T13:14:56;37.65;;;30.42;;
45236;SDS011;30973;51.442;3.580;2023-06-22T13:17:22;34.55;;;29.63;;
45236;SDS011;30973;51.442;3.580;2023-06-22T13:19:49;35.28;;;30.45;;
45236;SDS011;30973;51.442;3.580;2023-06-22T13:25:15;36.33;;;31.08;;
45236;SDS011;30973;51.442;3.580;2023-06-22T13:27:45;36.78;;;30.00;;
45236;SDS011;30973;51.442;3.580;2023-06-22T13:30:12;38.13;;;30.30;;
45236;SDS011;30973;51.442;3.580;2023-06-22T13:32:40;36.75;;;29.92;;
45236;SDS011;30973;51.442;3.580;2023-06-22T13:35:10;34.40;;;29.35;;
45236;SDS011;30973;51.442;3.580;2023-06-22T13:37:37;32.65;;;28.98;;
45236;SDS011;30973;51.442;3.580;2023-06-22T13:40:07;35.58;;;30.80;;
45236;SDS011;30973;51.442;3.580;2023-06-22T13:42:33;35.63;;;30.48;;
45236;SDS011;30973;51.442;3.580;2023-06-22T13:45:00;37.38;;;32.50;;
45236;SDS011;30973;51.442;3.580;2023-06-22T13:47:27;40.95;;;33.92;;
45236;SDS011;30973;51.442;3.580;2023-06-22T13:49:56;35.00;;;31.30;;
45236;SDS011;30973;51.442;3.580;2023-06-22T13:52:24;38.00;;;33.38;;
45236;SDS011;30973;51.442;3.580;2023-06-22T13:54:51;38.33;;;34.17;;
45236;SDS011;30973;51.442;3.580;2023-06-22T13:57:17;39.63;;;32.67;;
45236;SDS011;30973;51.442;3.580;2023-06-22T13:59:44;36.13;;;32.10;;
45236;SDS011;30973;51.442;3.580;2023-06-22T14:02:10;34.85;;;31.15;;
45236;SDS011;30973;51.442;3.580;2023-06-22T14:04:37;36.67;;;32.58;;
45236;SDS011;30973;51.442;3.580;2023-06-22T14:07:04;37.08;;;31.13;;
45236;SDS011;30973;51.442;3.580;2023-06-22T14:09:30;37.72;;;32.05;;
45236;SDS011;30973;51.442;3.580;2023-06-22T14:11:57;35.78;;;29.77;;
45236;SDS011;30973;51.442;3.580;2023-06-22T14:14:24;36.70;;;30.67;;
45236;SDS011;30973;51.442;3.580;2023-06-22T14:16:51;33.45;;;29.90;;
45236;SDS011;30973;51.442;3.580;2023-06-22T14:19:17;33.05;;;29.08;;
45236;SDS011;30973;51.442;3.580;2023-06-22T14:21:45;32.72;;;28.65;;
45236;SDS011;30973;51.442;3.580;2023-06-22T14:24:11;34.92;;;29.80;;
45236;SDS011;30973;51.442;3.580;2023-06-22T14:26:38;33.70;;;28.65;;
45236;SDS011;30973;51.442;3.580;2023-06-22T14:29:04;32.60;;;26.67;;
45236;SDS011;30973;51.442;3.580;2023-06-22T14:31:31;31.30;;;27.85;;
45236;SDS011;30973;51.442;3.580;2023-06-22T14:33:59;30.33;;;27.17;;
45236;SDS011;30973;51.442;3.580;2023-06-22T14:36:25;31.65;;;28.13;;
45236;SDS011;30973;51.442;3.580;2023-06-22T14:38:52;30.88;;;27.55;;
45236;SDS011;30973;51.442;3.580;2023-06-22T14:41:19;31.00;;;27.15;;